sensor_id;sensor_type;location;lat;lon;timestamp;pressure;altitude;pressure_sealevel;temperature;humidity
32131;BME280;18639;50.716;7.086;2023-07-13T00:01:04;100329.91;;;17.94;71.96
32131;BME280;18639;50.716;7.086;2023-07-13T00:03:30;100322.38;;;17.82;72.92
32131;BME280;18639;50.716;7.086;2023-07-13T00:06:01;100333.66;;;17.82;73.64
32131;BME280;18639;50.716;7.086;2023-07-13T00:08:31;100386.78;;;18.10;73.83
32131;BME280;18639;50.716;7.086;2023-07-13T00:10:57;100362.81;;;17.87;74.58
32131;BME280;18639;50.716;7.086;2023-07-13T00:13:23;100355.69;;;17.80;74.68
32131;BME280;18639;50.716;7.086;2023-07-13T00:15:48;100298.09;;;17.35;74.42
32131;BME280;18639;50.716;7.086;2023-07-13T00:18:14;100359.88;;;17.73;75.07
32131;BME280;18639;50.716;7.086;2023-07-13T00:20:40;100361.53;;;17.64;75.47
32131;BME280;18639;50.716;7.086;2023-07-13T00:23:06;100322.28;;;17.37;75.75
32131;BME280;18639;50.716;7.086;2023-07-13T00:25:32;100404.97;;;17.75;76.01
32131;BME280;18639;50.716;7.086;2023-07-13T00:27:57;100342.91;;;17.40;75.32
32131;BME280;18639;50.716;7.086;2023-07-13T00:30:23;100385.63;;;17.67;75.72
32131;BME280;18639;50.716;7.086;2023-07-13T00:32:49;100384.22;;;17.63;75.62
32131;BME280;18639;50.716;7.086;2023-07-13T00:35:15;100366.25;;;17.60;76.13
32131;BME280;18639;50.716;7.086;2023-07-13T00:37:41;100374.19;;;17.59;76.19
32131;BME280;18639;50.716;7.086;2023-07-13T00:40:07;100364.84;;;17.56;76.14
32131;BME280;18639;50.716;7.086;2023-07-13T00:42:33;100373.53;;;17.57;75.38
32131;BME280;18639;50.716;7.086;2023-07-13T00:47:36;100231.63;;;16.73;75.46
32131;BME280;18639;50.716;7.086;2023-07-13T00:50:09;100373.78;;;17.54;75.64
32131;BME280;18639;50.716;7.086;2023-07-13T00:52:37;100313.13;;;17.23;75.91
32131;BME280;18639;50.716;7.086;2023-07-13T00:55:04;100365.41;;;17.50;76.54
32131;BME280;18639;50.716;7.086;2023-07-13T00:57:40;100325.06;;;17.25;76.02
32131;BME280;18639;50.716;7.086;2023-07-13T01:00:09;100367.50;;;17.47;76.14
32131;BME280;18639;50.716;7.086;2023-07-13T01:02:37;100308.50;;;17.07;76.33
32131;BME280;18639;50.716;7.086;2023-07-13T01:05:17;100327.00;;;17.23;75.88
32131;BME280;18639;50.716;7.086;2023-07-13T01:07:44;100310.41;;;17.05;75.51
32131;BME280;18639;50.716;7.086;2023-07-13T01:10:11;100370.38;;;17.44;76.71
32131;BME280;18639;50.716;7.086;2023-07-13T01:12:36;100358.19;;;17.35;77.43
32131;BME280;18639;50.716;7.086;2023-07-13T01:15:03;100361.06;;;17.32;78.33
32131;BME280;18639;50.716;7.086;2023-07-13T01:17:31;100362.84;;;17.31;78.76
32131;BME280;18639;50.716;7.086;2023-07-13T01:19:58;100373.47;;;17.30;79.79
32131;BME280;18639;50.716;7.086;2023-07-13T01:22:24;100376.75;;;17.22;79.92
32131;BME280;18639;50.716;7.086;2023-07-13T01:24:51;100363.72;;;17.12;81.14
32131;BME280;18639;50.716;7.086;2023-07-13T01:27:25;100373.88;;;17.15;81.71
32131;BME280;18639;50.716;7.086;2023-07-13T01:29:51;100373.47;;;17.10;82.05
32131;BME280;18639;50.716;7.086;2023-07-13T01:32:20;100375.44;;;17.08;82.58
32131;BME280;18639;50.716;7.086;2023-07-13T01:34:50;100298.38;;;16.47;83.00
32131;BME280;18639;50.716;7.086;2023-07-13T01:37:15;100371.59;;;16.93;83.42
32131;BME280;18639;50.716;7.086;2023-07-13T01:39:40;100360.88;;;16.87;83.89
32131;BME280;18639;50.716;7.086;2023-07-13T01:42:06;100366.22;;;16.85;83.59
32131;BME280;18639;50.716;7.086;2023-07-13T01:44:31;100305.09;;;16.49;84.08
32131;BME280;18639;50.716;7.086;2023-07-13T01:46:57;100322.94;;;16.54;83.85
32131;BME280;18639;50.716;7.086;2023-07-13T01:49:22;100368.84;;;16.85;84.18
32131;BME280;18639;50.716;7.086;2023-07-13T01:51:47;100329.13;;;16.53;84.76
32131;BME280;18639;50.716;7.086;2023-07-13T01:54:13;100329.13;;;16.53;85.02
32131;BME280;18639;50.716;7.086;2023-07-13T01:56:38;100317.75;;;16.34;84.63
32131;BME280;18639;50.716;7.086;2023-07-13T01:59:04;100310.19;;;16.31;85.13
32131;BME280;18639;50.716;7.086;2023-07-13T02:01:30;100357.31;;;16.59;85.37
32131;BME280;18639;50.716;7.086;2023-07-13T02:03:55;100361.56;;;16.60;85.75
32131;BME280;18639;50.716;7.086;2023-07-13T02:06:20;100321.97;;;16.35;86.08
32131;BME280;18639;50.716;7.086;2023-07-13T02:08:46;100309.75;;;16.26;85.39
32131;BME280;18639;50.716;7.086;2023-07-13T02:11:11;100351.22;;;16.49;85.84
32131;BME280;18639;50.716;7.086;2023-07-13T02:13:37;100310.03;;;16.23;86.62
32131;BME280;18639;50.716;7.086;2023-07-13T02:16:02;100371.19;;;16.59;86.69
32131;BME280;18639;50.716;7.086;2023-07-13T02:18:27;100380.06;;;16.57;86.76
32131;BME280;18639;50.716;7.086;2023-07-13T02:20:53;100356.47;;;16.49;87.26
32131;BME280;18639;50.716;7.086;2023-07-13T02:23:18;100364.28;;;16.49;86.88
32131;BME280;18639;50.716;7.086;2023-07-13T02:25:45;100345.44;;;16.26;86.47
32131;BME280;18639;50.716;7.086;2023-07-13T02:28:11;100376.91;;;16.53;86.98
32131;BME280;18639;50.716;7.086;2023-07-13T02:30:36;100381.19;;;16.54;87.03
32131;BME280;18639;50.716;7.086;2023-07-13T02:33:02;100374.00;;;16.47;87.13
32131;BME280;18639;50.716;7.086;2023-07-13T02:35:27;100381.84;;;16.47;87.28
32131;BME280;18639;50.716;7.086;2023-07-13T02:37:53;100370.75;;;16.45;88.26
32131;BME280;18639;50.716;7.086;2023-07-13T02:40:18;100382.41;;;16.50;88.74
32131;BME280;18639;50.716;7.086;2023-07-13T02:42:43;100384.44;;;16.56;88.34
32131;BME280;18639;50.716;7.086;2023-07-13T02:45:09;100327.31;;;16.15;88.17
32131;BME280;18639;50.716;7.086;2023-07-13T02:47:35;100313.84;;;16.10;88.49
32131;BME280;18639;50.716;7.086;2023-07-13T02:50:01;100348.19;;;16.24;88.66
32131;BME280;18639;50.716;7.086;2023-07-13T02:52:26;100386.53;;;16.53;89.34
32131;BME280;18639;50.716;7.086;2023-07-13T02:54:52;100295.28;;;15.84;89.04
32131;BME280;18639;50.716;7.086;2023-07-13T02:57:17;100318.50;;;15.96;89.63
32131;BME280;18639;50.716;7.086;2023-07-13T02:59:42;100296.78;;;15.77;89.55
32131;BME280;18639;50.716;7.086;2023-07-13T03:02:08;100290.72;;;15.76;89.60
32131;BME280;18639;50.716;7.086;2023-07-13T03:04:35;100385.81;;;16.31;89.20
32131;BME280;18639;50.716;7.086;2023-07-13T03:07:01;100375.47;;;16.20;89.00
32131;BME280;18639;50.716;7.086;2023-07-13T03:09:26;100393.22;;;16.26;88.87
32131;BME280;18639;50.716;7.086;2023-07-13T03:11:55;100348.69;;;15.99;88.95
32131;BME280;18639;50.716;7.086;2023-07-13T03:14:22;100387.69;;;16.20;89.99
32131;BME280;18639;50.716;7.086;2023-07-13T03:16:47;100336.03;;;15.85;90.10
32131;BME280;18639;50.716;7.086;2023-07-13T03:19:13;100329.97;;;15.75;90.32
32131;BME280;18639;50.716;7.086;2023-07-13T03:21:38;100390.56;;;16.07;89.91
32131;BME280;18639;50.716;7.086;2023-07-13T03:24:03;100370.06;;;15.93;90.54
32131;BME280;18639;50.716;7.086;2023-07-13T03:26:29;100397.16;;;16.11;90.66
32131;BME280;18639;50.716;7.086;2023-07-13T03:28:54;100386.00;;;15.99;91.49
32131;BME280;18639;50.716;7.086;2023-07-13T03:31:21;100408.28;;;16.13;91.77
32131;BME280;18639;50.716;7.086;2023-07-13T03:33:47;100414.44;;;16.12;91.88
32131;BME280;18639;50.716;7.086;2023-07-13T03:36:17;100415.72;;;16.18;92.56
32131;BME280;18639;50.716;7.086;2023-07-13T03:38:48;100391.81;;;16.13;92.09
32131;BME280;18639;50.716;7.086;2023-07-13T03:41:15;100399.47;;;16.14;91.99
32131;BME280;18639;50.716;7.086;2023-07-13T03:43:40;100367.31;;;15.94;92.62
32131;BME280;18639;50.716;7.086;2023-07-13T03:46:06;100422.84;;;16.25;92.77
32131;BME280;18639;50.716;7.086;2023-07-13T03:48:31;100437.53;;;16.26;92.72
32131;BME280;18639;50.716;7.086;2023-07-13T03:50:57;100370.06;;;15.93;92.92
32131;BME280;18639;50.716;7.086;2023-07-13T03:53:22;100408.72;;;16.18;92.56
32131;BME280;18639;50.716;7.086;2023-07-13T03:55:50;100426.16;;;16.27;92.88
32131;BME280;18639;50.716;7.086;2023-07-13T04:00:55;100434.00;;;16.37;93.68
32131;BME280;18639;50.716;7.086;2023-07-13T04:03:21;100406.88;;;16.09;93.79
32131;BME280;18639;50.716;7.086;2023-07-13T04:05:46;100399.63;;;16.13;93.50
32131;BME280;18639;50.716;7.086;2023-07-13T04:08:12;100439.50;;;16.43;92.57
32131;BME280;18639;50.716;7.086;2023-07-13T04:10:38;100422.31;;;16.31;91.48
32131;BME280;18639;50.716;7.086;2023-07-13T04:13:04;100370.25;;;16.01;91.58
32131;BME280;18639;50.716;7.086;2023-07-13T04:15:30;100420.41;;;16.33;91.29
32131;BME280;18639;50.716;7.086;2023-07-13T04:17:56;100379.72;;;16.02;91.15
32131;BME280;18639;50.716;7.086;2023-07-13T04:20:22;100418.88;;;16.31;91.81
32131;BME280;18639;50.716;7.086;2023-07-13T04:22:47;100326.94;;;15.70;92.11
32131;BME280;18639;50.716;7.086;2023-07-13T04:25:12;100378.28;;;15.88;92.66
32131;BME280;18639;50.716;7.086;2023-07-13T04:27:37;100437.72;;;16.34;93.42
32131;BME280;18639;50.716;7.086;2023-07-13T04:30:05;100438.50;;;16.35;93.57
32131;BME280;18639;50.716;7.086;2023-07-13T04:32:31;100422.03;;;16.25;94.68
32131;BME280;18639;50.716;7.086;2023-07-13T04:34:57;100442.88;;;16.25;94.73
32131;BME280;18639;50.716;7.086;2023-07-13T04:37:24;100437.81;;;16.23;94.49
32131;BME280;18639;50.716;7.086;2023-07-13T04:39:49;100383.78;;;15.95;93.89
32131;BME280;18639;50.716;7.086;2023-07-13T04:42:15;100414.56;;;16.11;92.80
32131;BME280;18639;50.716;7.086;2023-07-13T04:44:40;100395.72;;;15.97;92.15
32131;BME280;18639;50.716;7.086;2023-07-13T04:47:05;100364.28;;;15.80;92.03
32131;BME280;18639;50.716;7.086;2023-07-13T04:49:31;100382.69;;;15.97;92.04
32131;BME280;18639;50.716;7.086;2023-07-13T04:51:56;100396.44;;;15.99;93.25
32131;BME280;18639;50.716;7.086;2023-07-13T04:54:21;100417.91;;;16.22;94.71
32131;BME280;18639;50.716;7.086;2023-07-13T04:56:47;100387.81;;;16.09;94.48
32131;BME280;18639;50.716;7.086;2023-07-13T04:59:12;100442.13;;;16.43;93.37
32131;BME280;18639;50.716;7.086;2023-07-13T05:01:37;100391.94;;;16.11;91.29
32131;BME280;18639;50.716;7.086;2023-07-13T05:04:03;100431.38;;;16.37;91.64
32131;BME280;18639;50.716;7.086;2023-07-13T05:06:28;100444.19;;;16.50;89.66
32131;BME280;18639;50.716;7.086;2023-07-13T05:08:55;100423.44;;;16.38;89.81
32131;BME280;18639;50.716;7.086;2023-07-13T05:11:20;100456.19;;;16.62;90.34
32131;BME280;18639;50.716;7.086;2023-07-13T05:13:46;100410.53;;;16.37;90.30
32131;BME280;18639;50.716;7.086;2023-07-13T05:16:11;100398.03;;;16.31;88.50
32131;BME280;18639;50.716;7.086;2023-07-13T05:18:36;100448.75;;;16.67;88.67
32131;BME280;18639;50.716;7.086;2023-07-13T05:21:04;100441.94;;;16.66;90.61
32131;BME280;18639;50.716;7.086;2023-07-13T05:23:31;100468.84;;;16.86;90.58
32131;BME280;18639;50.716;7.086;2023-07-13T05:25:57;100467.22;;;16.94;89.70
32131;BME280;18639;50.716;7.086;2023-07-13T05:28:23;100392.03;;;16.50;88.61
32131;BME280;18639;50.716;7.086;2023-07-13T05:30:49;100479.31;;;17.05;89.23
32131;BME280;18639;50.716;7.086;2023-07-13T05:33:15;100437.81;;;16.92;89.72
32131;BME280;18639;50.716;7.086;2023-07-13T05:35:40;100476.84;;;17.22;87.48
32131;BME280;18639;50.716;7.086;2023-07-13T05:38:06;100462.28;;;17.30;87.35
32131;BME280;18639;50.716;7.086;2023-07-13T05:40:31;100463.34;;;17.37;87.01
32131;BME280;18639;50.716;7.086;2023-07-13T05:42:57;100433.41;;;17.21;86.04
32131;BME280;18639;50.716;7.086;2023-07-13T05:45:22;100471.19;;;17.46;84.64
32131;BME280;18639;50.716;7.086;2023-07-13T05:47:47;100436.16;;;17.30;85.45
32131;BME280;18639;50.716;7.086;2023-07-13T05:50:12;100458.38;;;17.53;86.04
32131;BME280;18639;50.716;7.086;2023-07-13T05:52:38;100431.88;;;17.38;86.39
32131;BME280;18639;50.716;7.086;2023-07-13T05:55:03;100481.19;;;17.70;87.19
32131;BME280;18639;50.716;7.086;2023-07-13T05:57:30;100419.34;;;17.32;85.92
32131;BME280;18639;50.716;7.086;2023-07-13T05:59:56;100450.53;;;17.53;86.62
32131;BME280;18639;50.716;7.086;2023-07-13T06:02:21;100449.56;;;17.54;86.46
32131;BME280;18639;50.716;7.086;2023-07-13T06:04:47;100457.81;;;17.59;86.52
32131;BME280;18639;50.716;7.086;2023-07-13T06:07:21;100414.41;;;17.39;87.30
32131;BME280;18639;50.716;7.086;2023-07-13T06:09:49;100377.06;;;17.09;87.34
32131;BME280;18639;50.716;7.086;2023-07-13T06:12:14;100457.53;;;17.72;86.91
32131;BME280;18639;50.716;7.086;2023-07-13T06:14:39;100481.16;;;17.89;87.36
32131;BME280;18639;50.716;7.086;2023-07-13T06:17:05;100490.38;;;17.93;87.99
32131;BME280;18639;50.716;7.086;2023-07-13T06:19:31;100511.94;;;18.05;87.10
32131;BME280;18639;50.716;7.086;2023-07-13T06:22:12;100434.84;;;17.72;86.50
32131;BME280;18639;50.716;7.086;2023-07-13T06:24:37;100459.81;;;17.94;86.31
32131;BME280;18639;50.716;7.086;2023-07-13T06:27:03;100400.06;;;17.62;86.81
32131;BME280;18639;50.716;7.086;2023-07-13T06:29:28;100442.94;;;18.06;84.99
32131;BME280;18639;50.716;7.086;2023-07-13T06:31:53;100494.13;;;18.45;84.12
32131;BME280;18639;50.716;7.086;2023-07-13T06:34:19;100492.19;;;18.57;83.61
32131;BME280;18639;50.716;7.086;2023-07-13T06:36:44;100395.75;;;18.07;84.18
32131;BME280;18639;50.716;7.086;2023-07-13T06:39:09;100504.41;;;18.84;79.73
32131;BME280;18639;50.716;7.086;2023-07-13T06:47:57;100457.56;;;18.63;84.29
32131;BME280;18639;50.716;7.086;2023-07-13T06:50:22;100531.22;;;19.13;83.60
32131;BME280;18639;50.716;7.086;2023-07-13T06:56:27;100470.31;;;19.11;76.45
32131;BME280;18639;50.716;7.086;2023-07-13T06:58:53;100477.53;;;19.35;76.80
32131;BME280;18639;50.716;7.086;2023-07-13T07:01:21;100482.91;;;19.51;75.28
32131;BME280;18639;50.716;7.086;2023-07-13T07:03:51;100533.03;;;19.92;76.24
32131;BME280;18639;50.716;7.086;2023-07-13T07:06:20;100480.22;;;19.87;72.26
32131;BME280;18639;50.716;7.086;2023-07-13T07:08:45;100516.19;;;20.28;72.24
32131;BME280;18639;50.716;7.086;2023-07-13T07:11:17;100515.31;;;20.45;70.25
32131;BME280;18639;50.716;7.086;2023-07-13T07:13:43;100520.75;;;20.60;70.09
32131;BME280;18639;50.716;7.086;2023-07-13T07:16:08;100479.47;;;20.36;70.56
32131;BME280;18639;50.716;7.086;2023-07-13T07:18:39;100533.13;;;20.84;69.79
32131;BME280;18639;50.716;7.086;2023-07-13T07:21:04;100474.81;;;20.56;69.98
32131;BME280;18639;50.716;7.086;2023-07-13T07:23:30;100510.53;;;20.99;68.86
32131;BME280;18639;50.716;7.086;2023-07-13T07:25:55;100529.94;;;21.22;71.04
32131;BME280;18639;50.716;7.086;2023-07-13T07:28:21;100535.88;;;21.32;68.48
32131;BME280;18639;50.716;7.086;2023-07-13T07:30:47;100480.16;;;21.05;65.46
32131;BME280;18639;50.716;7.086;2023-07-13T07:33:13;100524.69;;;21.55;66.33
32131;BME280;18639;50.716;7.086;2023-07-13T07:35:38;100528.00;;;21.73;68.69
32131;BME280;18639;50.716;7.086;2023-07-13T07:38:04;100522.09;;;21.63;64.63
32131;BME280;18639;50.716;7.086;2023-07-13T07:40:30;100480.97;;;21.54;66.09
32131;BME280;18639;50.716;7.086;2023-07-13T07:42:56;100526.31;;;21.88;64.10
32131;BME280;18639;50.716;7.086;2023-07-13T07:45:21;100531.22;;;21.91;67.60
32131;BME280;18639;50.716;7.086;2023-07-13T07:47:47;100500.81;;;21.80;65.46
32131;BME280;18639;50.716;7.086;2023-07-13T07:50:12;100485.34;;;21.85;64.42
32131;BME280;18639;50.716;7.086;2023-07-13T07:52:38;100513.13;;;22.12;65.58
32131;BME280;18639;50.716;7.086;2023-07-13T07:55:18;100448.03;;;21.82;61.11
32131;BME280;18639;50.716;7.086;2023-07-13T07:57:44;100467.44;;;21.97;60.07
32131;BME280;18639;50.716;7.086;2023-07-13T08:00:10;100514.03;;;22.36;60.94
32131;BME280;18639;50.716;7.086;2023-07-13T08:02:35;100430.91;;;21.86;63.01
32131;BME280;18639;50.716;7.086;2023-07-13T08:05:01;100435.88;;;21.81;60.96
32131;BME280;18639;50.716;7.086;2023-07-13T08:07:26;100509.75;;;22.35;59.07
32131;BME280;18639;50.716;7.086;2023-07-13T08:09:52;100521.31;;;22.17;60.86
32131;BME280;18639;50.716;7.086;2023-07-13T08:12:18;100524.66;;;22.03;59.76
32131;BME280;18639;50.716;7.086;2023-07-13T08:14:43;100519.03;;;22.14;63.83
32131;BME280;18639;50.716;7.086;2023-07-13T08:17:08;100537.44;;;22.31;64.94
32131;BME280;18639;50.716;7.086;2023-07-13T08:19:34;100447.00;;;22.07;64.18
32131;BME280;18639;50.716;7.086;2023-07-13T08:21:59;100432.63;;;22.18;64.32
32131;BME280;18639;50.716;7.086;2023-07-13T08:24:24;100513.16;;;22.82;63.86
32131;BME280;18639;50.716;7.086;2023-07-13T08:26:51;100460.22;;;22.61;58.02
32131;BME280;18639;50.716;7.086;2023-07-13T08:29:16;100448.34;;;22.73;60.74
32131;BME280;18639;50.716;7.086;2023-07-13T08:31:44;100467.94;;;22.93;57.89
32131;BME280;18639;50.716;7.086;2023-07-13T08:34:10;100472.75;;;22.90;57.34
32131;BME280;18639;50.716;7.086;2023-07-13T08:36:35;100501.41;;;23.16;56.51
32131;BME280;18639;50.716;7.086;2023-07-13T08:39:00;100453.72;;;23.02;56.18
32131;BME280;18639;50.716;7.086;2023-07-13T08:41:26;100494.44;;;23.23;54.30
32131;BME280;18639;50.716;7.086;2023-07-13T08:43:56;100461.19;;;23.36;58.89
32131;BME280;18639;50.716;7.086;2023-07-13T08:46:37;100463.28;;;23.41;55.38
32131;BME280;18639;50.716;7.086;2023-07-13T08:49:16;100431.72;;;23.33;55.91
32131;BME280;18639;50.716;7.086;2023-07-13T08:52:08;100398.41;;;23.17;56.25
32131;BME280;18639;50.716;7.086;2023-07-13T08:54:35;100468.53;;;23.64;55.57
32131;BME280;18639;50.716;7.086;2023-07-13T08:57:15;100495.31;;;23.61;53.42
32131;BME280;18639;50.716;7.086;2023-07-13T08:59:42;100457.16;;;23.26;53.24
32131;BME280;18639;50.716;7.086;2023-07-13T09:04:50;100482.53;;;23.49;53.03
32131;BME280;18639;50.716;7.086;2023-07-13T09:10:11;100480.09;;;23.77;52.73
32131;BME280;18639;50.716;7.086;2023-07-13T09:13:13;100484.13;;;24.03;55.02
32131;BME280;18639;50.716;7.086;2023-07-13T09:15:44;100481.13;;;24.06;50.51
32131;BME280;18639;50.716;7.086;2023-07-13T09:18:19;100484.47;;;24.00;50.89
32131;BME280;18639;50.716;7.086;2023-07-13T09:21:05;100472.09;;;23.71;51.26
32131;BME280;18639;50.716;7.086;2023-07-13T09:23:34;100453.44;;;23.35;53.07
32131;BME280;18639;50.716;7.086;2023-07-13T09:26:39;100406.16;;;22.73;53.33
32131;BME280;18639;50.716;7.086;2023-07-13T09:29:16;100486.91;;;22.97;52.85
32131;BME280;18639;50.716;7.086;2023-07-13T09:31:49;100488.75;;;22.88;54.74
32131;BME280;18639;50.716;7.086;2023-07-13T09:34:18;100494.56;;;22.84;54.61
32131;BME280;18639;50.716;7.086;2023-07-13T09:36:43;100452.63;;;22.66;55.85
32131;BME280;18639;50.716;7.086;2023-07-13T09:39:15;100461.09;;;22.84;54.86
32131;BME280;18639;50.716;7.086;2023-07-13T09:41:51;100476.06;;;23.29;53.29
32131;BME280;18639;50.716;7.086;2023-07-13T09:44:31;100456.22;;;23.56;54.64
32131;BME280;18639;50.716;7.086;2023-07-13T09:47:16;100389.16;;;23.50;50.35
32131;BME280;18639;50.716;7.086;2023-07-13T09:50:00;100401.13;;;23.61;51.99
32131;BME280;18639;50.716;7.086;2023-07-13T09:52:42;100465.34;;;23.68;52.43
32131;BME280;18639;50.716;7.086;2023-07-13T09:55:25;100484.47;;;23.70;52.18
32131;BME280;18639;50.716;7.086;2023-07-13T09:57:51;100414.53;;;23.37;53.55
32131;BME280;18639;50.716;7.086;2023-07-13T10:00:26;100470.72;;;24.04;51.67
32131;BME280;18639;50.716;7.086;2023-07-13T10:02:59;100472.47;;;24.12;52.75
32131;BME280;18639;50.716;7.086;2023-07-13T10:05:24;100504.09;;;24.35;52.02
32131;BME280;18639;50.716;7.086;2023-07-13T10:07:51;100453.22;;;24.68;50.29
32131;BME280;18639;50.716;7.086;2023-07-13T10:10:29;100487.88;;;25.59;47.68
32131;BME280;18639;50.716;7.086;2023-07-13T10:13:24;100419.81;;;25.87;48.08
32131;BME280;18639;50.716;7.086;2023-07-13T10:16:05;100486.41;;;26.59;43.65
32131;BME280;18639;50.716;7.086;2023-07-13T10:18:39;100382.16;;;26.52;42.49
32131;BME280;18639;50.716;7.086;2023-07-13T10:21:55;100428.53;;;27.29;39.46
32131;BME280;18639;50.716;7.086;2023-07-13T10:24:37;100437.88;;;27.77;40.65
32131;BME280;18639;50.716;7.086;2023-07-13T10:27:16;100459.97;;;27.71;38.65
32131;BME280;18639;50.716;7.086;2023-07-13T10:29:46;100416.84;;;26.77;39.93
32131;BME280;18639;50.716;7.086;2023-07-13T10:32:13;100467.19;;;26.57;43.61
32131;BME280;18639;50.716;7.086;2023-07-13T10:34:40;100496.19;;;26.59;45.75
32131;BME280;18639;50.716;7.086;2023-07-13T10:37:17;100489.97;;;26.99;47.58
32131;BME280;18639;50.716;7.086;2023-07-13T10:39:46;100469.75;;;26.98;45.32
32131;BME280;18639;50.716;7.086;2023-07-13T10:42:27;100467.31;;;27.10;45.24
32131;BME280;18639;50.716;7.086;2023-07-13T10:44:54;100448.88;;;26.69;42.19
32131;BME280;18639;50.716;7.086;2023-07-13T10:47:19;100465.59;;;26.63;40.70
32131;BME280;18639;50.716;7.086;2023-07-13T10:49:47;100479.34;;;26.32;39.42
32131;BME280;18639;50.716;7.086;2023-07-13T10:52:48;100507.50;;;26.33;41.14
32131;BME280;18639;50.716;7.086;2023-07-13T10:56:01;100407.28;;;25.40;41.78
32131;BME280;18639;50.716;7.086;2023-07-13T11:02:26;100455.63;;;24.63;42.88
32131;BME280;18639;50.716;7.086;2023-07-13T11:04:54;100476.47;;;24.73;42.90
32131;BME280;18639;50.716;7.086;2023-07-13T11:07:30;100488.53;;;24.61;44.54
32131;BME280;18639;50.716;7.086;2023-07-13T11:10:03;100533.94;;;24.50;44.04
32131;BME280;18639;50.716;7.086;2023-07-13T11:12:50;100463.25;;;23.78;44.75
32131;BME280;18639;50.716;7.086;2023-07-13T11:18:26;100447.00;;;23.37;44.65
32131;BME280;18639;50.716;7.086;2023-07-13T11:20:54;100459.72;;;23.34;45.40
32131;BME280;18639;50.716;7.086;2023-07-13T11:24:00;100533.09;;;23.90;45.91
32131;BME280;18639;50.716;7.086;2023-07-13T11:29:37;100494.75;;;23.65;46.25
32131;BME280;18639;50.716;7.086;2023-07-13T11:32:23;100485.75;;;23.74;45.30
32131;BME280;18639;50.716;7.086;2023-07-13T11:35:12;100449.69;;;23.52;44.92
32131;BME280;18639;50.716;7.086;2023-07-13T11:37:38;100545.75;;;24.10;46.45
32131;BME280;18639;50.716;7.086;2023-07-13T11:40:11;100485.25;;;23.56;44.25
32131;BME280;18639;50.716;7.086;2023-07-13T11:42:39;100469.91;;;23.37;45.74
32131;BME280;18639;50.716;7.086;2023-07-13T11:45:21;100509.66;;;23.58;46.80
32131;BME280;18639;50.716;7.086;2023-07-13T11:48:21;100441.53;;;23.01;46.93
32131;BME280;18639;50.716;7.086;2023-07-13T11:51:04;100541.97;;;23.60;46.72
32131;BME280;18639;50.716;7.086;2023-07-13T11:53:54;100468.44;;;22.97;45.76
32131;BME280;18639;50.716;7.086;2023-07-13T11:56:25;100428.91;;;22.74;45.15
32131;BME280;18639;50.716;7.086;2023-07-13T11:58:56;100505.75;;;23.08;47.07
32131;BME280;18639;50.716;7.086;2023-07-13T12:01:25;100481.00;;;22.87;46.85
32131;BME280;18639;50.716;7.086;2023-07-13T12:03:52;100498.59;;;22.94;46.84
32131;BME280;18639;50.716;7.086;2023-07-13T12:06:29;100520.22;;;23.13;47.74
32131;BME280;18639;50.716;7.086;2023-07-13T12:09:00;100533.19;;;23.22;49.00
32131;BME280;18639;50.716;7.086;2023-07-13T12:11:27;100533.00;;;23.24;46.84
32131;BME280;18639;50.716;7.086;2023-07-13T12:13:52;100515.25;;;23.18;48.30
32131;BME280;18639;50.716;7.086;2023-07-13T12:16:32;100529.03;;;23.28;46.55
32131;BME280;18639;50.716;7.086;2023-07-13T12:18:59;100553.47;;;23.44;48.31
32131;BME280;18639;50.716;7.086;2023-07-13T12:21:32;100490.81;;;23.01;46.26
32131;BME280;18639;50.716;7.086;2023-07-13T12:23:58;100549.59;;;23.55;46.53
32131;BME280;18639;50.716;7.086;2023-07-13T12:26:24;100538.34;;;23.61;48.46
32131;BME280;18639;50.716;7.086;2023-07-13T12:28:53;100544.69;;;23.67;48.15
32131;BME280;18639;50.716;7.086;2023-07-13T12:34:06;100533.34;;;23.43;48.58
32131;BME280;18639;50.716;7.086;2023-07-13T12:36:35;100529.88;;;23.43;49.43
32131;BME280;18639;50.716;7.086;2023-07-13T12:39:11;100503.91;;;23.09;49.81
32131;BME280;18639;50.716;7.086;2023-07-13T12:41:41;100552.38;;;23.31;50.54
32131;BME280;18639;50.716;7.086;2023-07-13T12:44:12;100558.91;;;23.20;50.90
32131;BME280;18639;50.716;7.086;2023-07-13T12:46:39;100483.56;;;22.72;50.91
32131;BME280;18639;50.716;7.086;2023-07-13T12:49:58;100575.66;;;23.27;50.18
32131;BME280;18639;50.716;7.086;2023-07-13T12:52:34;100469.09;;;22.68;48.95
32131;BME280;18639;50.716;7.086;2023-07-13T12:55:12;100518.75;;;23.10;50.38
32131;BME280;18639;50.716;7.086;2023-07-13T12:57:45;100534.00;;;23.23;50.75
32131;BME280;18639;50.716;7.086;2023-07-13T13:00:37;100561.53;;;23.43;51.32
32131;BME280;18639;50.716;7.086;2023-07-13T13:06:05;100566.34;;;23.39;50.06
32131;BME280;18639;50.716;7.086;2023-07-13T13:08:32;100551.47;;;23.24;50.92
32131;BME280;18639;50.716;7.086;2023-07-13T13:11:28;100559.88;;;23.42;49.78
32131;BME280;18639;50.716;7.086;2023-07-13T13:13:56;100549.34;;;23.42;48.52
32131;BME280;18639;50.716;7.086;2023-07-13T13:16:29;100478.50;;;22.93;48.83
32131;BME280;18639;50.716;7.086;2023-07-13T13:19:29;100506.16;;;23.20;49.39
32131;BME280;18639;50.716;7.086;2023-07-13T13:21:56;100503.50;;;23.20;50.80
32131;BME280;18639;50.716;7.086;2023-07-13T13:24:24;100523.31;;;23.39;48.49
32131;BME280;18639;50.716;7.086;2023-07-13T13:26:51;100524.50;;;23.36;49.61
32131;BME280;18639;50.716;7.086;2023-07-13T13:29:21;100450.69;;;22.91;48.26
32131;BME280;18639;50.716;7.086;2023-07-13T13:31:47;100557.72;;;23.68;48.09
32131;BME280;18639;50.716;7.086;2023-07-13T13:34:17;100507.13;;;23.42;49.33
32131;BME280;18639;50.716;7.086;2023-07-13T13:36:44;100517.66;;;23.50;48.60
32131;BME280;18639;50.716;7.086;2023-07-13T13:39:20;100502.75;;;23.34;49.50